createdAt,value
2018-01-27T00:02:19.466Z,96.00
2018-01-27T00:04:45.355Z,95.91
2018-01-27T00:07:11.110Z,95.77
2018-01-27T00:09:36.993Z,95.49
2018-01-27T00:12:02.850Z,95.34
2018-01-27T00:14:28.655Z,95.25
2018-01-27T00:16:54.410Z,95.04
2018-01-27T00:19:20.158Z,94.97
2018-01-27T00:21:45.972Z,94.76
2018-01-27T00:24:11.752Z,94.86
2018-01-27T00:26:37.567Z,94.82
2018-01-27T00:29:03.334Z,95.08
2018-01-27T00:31:29.635Z,95.31
2018-01-27T00:33:55.370Z,94.90
2018-01-27T00:36:21.135Z,95.19
2018-01-27T00:38:47.135Z,95.17
2018-01-27T00:41:12.899Z,95.25
2018-01-27T00:43:38.646Z,95.27
2018-01-27T00:46:04.474Z,95.20
2018-01-27T00:48:30.735Z,95.25
2018-01-27T00:50:56.494Z,95.29
2018-01-27T00:53:22.242Z,95.25
2018-01-27T00:55:47.994Z,95.39
2018-01-27T00:58:13.730Z,95.38
2018-01-27T01:00:39.504Z,95.43
2018-01-27T01:03:05.262Z,95.50
2018-01-27T01:05:31.018Z,95.63
2018-01-27T01:07:56.786Z,95.52
2018-01-27T01:10:22.539Z,95.64
2018-01-27T01:12:48.317Z,95.72
2018-01-27T01:15:14.087Z,95.75
2018-01-27T01:17:39.853Z,95.88
2018-01-27T01:20:05.610Z,95.77
2018-01-27T01:22:31.378Z,95.92
2018-01-27T01:24:57.133Z,95.66
2018-01-27T01:27:22.903Z,95.92
2018-01-27T01:29:48.676Z,96.00
2018-01-27T01:32:14.426Z,96.17
2018-01-27T01:34:40.195Z,96.27
2018-01-27T01:37:05.958Z,96.21
2018-01-27T01:39:31.702Z,96.42
2018-01-27T01:41:57.469Z,96.50
2018-01-27T01:44:26.195Z,96.45
2018-01-27T01:46:51.935Z,96.54
2018-01-27T01:49:20.436Z,96.58
2018-01-27T01:51:46.178Z,96.68
2018-01-27T01:54:11.922Z,96.88
2018-01-27T01:56:37.680Z,96.88
2018-01-27T01:59:03.462Z,97.05
2018-01-27T02:01:29.211Z,97.26
2018-01-27T02:03:54.990Z,97.24
2018-01-27T02:06:20.734Z,97.45
2018-01-27T02:08:46.491Z,97.51
2018-01-27T02:11:12.250Z,97.52
2018-01-27T02:13:38.031Z,97.82
2018-01-27T02:16:03.794Z,97.96
2018-01-27T02:18:29.566Z,98.05
2018-01-27T02:20:55.332Z,98.05
2018-01-27T02:23:21.102Z,98.14
2018-01-27T02:25:46.855Z,98.12
2018-01-27T02:28:12.621Z,98.19
2018-01-27T02:30:38.388Z,98.20
2018-01-27T02:33:04.167Z,98.16
2018-01-27T02:35:29.933Z,98.30
2018-01-27T02:37:55.712Z,98.25
2018-01-27T02:40:21.477Z,98.29
2018-01-27T02:42:47.243Z,98.38
2018-01-27T02:45:13.011Z,98.40
2018-01-27T02:47:38.759Z,98.31
2018-01-27T02:50:04.519Z,98.35
2018-01-27T02:52:30.280Z,98.33
2018-01-27T02:54:56.058Z,98.32
2018-01-27T02:57:21.817Z,98.30
2018-01-27T02:59:47.582Z,98.33
2018-01-27T03:02:13.359Z,98.34
2018-01-27T03:04:39.130Z,98.37
2018-01-27T03:07:04.895Z,98.40
2018-01-27T03:09:30.672Z,98.40
2018-01-27T03:11:56.423Z,98.43
2018-01-27T03:14:22.186Z,98.36
2018-01-27T03:16:47.941Z,98.33
2018-01-27T03:19:13.702Z,98.27
2018-01-27T03:21:39.458Z,98.28
2018-01-27T03:24:05.211Z,98.26
2018-01-27T03:26:30.986Z,98.30
2018-01-27T03:28:56.750Z,98.32
2018-01-27T03:31:22.536Z,98.33
2018-01-27T03:33:48.292Z,98.37
2018-01-27T03:36:14.057Z,98.29
2018-01-27T03:38:39.827Z,98.40
2018-01-27T03:41:05.598Z,98.52
2018-01-27T03:43:31.355Z,98.53
2018-01-27T03:45:57.122Z,98.53
2018-01-27T03:48:22.884Z,98.50
2018-01-27T03:50:48.662Z,98.54
2018-01-27T03:53:14.397Z,98.47
2018-01-27T03:55:40.168Z,98.55
2018-01-27T03:58:05.918Z,98.49
2018-01-27T04:00:31.678Z,98.54
2018-01-27T04:02:57.443Z,98.48
2018-01-27T04:05:23.221Z,98.50
2018-01-27T04:07:48.979Z,98.55
2018-01-27T04:10:14.751Z,98.46
2018-01-27T04:12:40.514Z,98.47
2018-01-27T04:15:06.266Z,98.36
2018-01-27T04:17:32.032Z,98.39
2018-01-27T04:19:57.795Z,98.38
2018-01-27T04:22:23.560Z,98.34
2018-01-27T04:24:49.291Z,98.26
2018-01-27T04:27:15.034Z,98.24
2018-01-27T04:29:40.802Z,98.26
2018-01-27T04:32:06.562Z,98.26
2018-01-27T04:34:32.314Z,98.29
2018-01-27T04:36:58.069Z,98.20
2018-01-27T04:39:23.817Z,98.24
2018-01-27T04:41:49.578Z,98.20
2018-01-27T04:44:15.341Z,98.24
2018-01-27T04:46:41.110Z,98.18
2018-01-27T04:49:06.862Z,98.23
2018-01-27T04:51:32.602Z,98.20
2018-01-27T04:53:58.353Z,98.20
2018-01-27T04:56:24.100Z,98.26
2018-01-27T04:58:49.846Z,98.26
2018-01-27T05:01:15.582Z,98.20
2018-01-27T05:03:41.339Z,98.19
2018-01-27T05:06:07.087Z,98.20
2018-01-27T05:08:32.834Z,98.19
2018-01-27T05:10:58.582Z,98.14
2018-01-27T05:13:24.342Z,98.05
2018-01-27T05:15:50.086Z,98.08
2018-01-27T05:18:15.840Z,98.11
2018-01-27T05:20:41.583Z,98.15
2018-01-27T05:23:07.334Z,98.17
2018-01-27T05:25:33.080Z,98.19
2018-01-27T05:27:58.834Z,98.24
2018-01-27T05:30:24.628Z,98.20
2018-01-27T05:32:50.379Z,98.18
2018-01-27T05:35:16.138Z,98.17
2018-01-27T05:37:41.906Z,98.18
2018-01-27T05:40:07.659Z,98.12
2018-01-27T05:42:33.414Z,98.01
2018-01-27T05:44:59.154Z,97.93
2018-01-27T05:47:24.905Z,97.95
2018-01-27T05:49:50.663Z,97.86
2018-01-27T05:52:16.407Z,97.78
2018-01-27T05:54:42.167Z,97.74
2018-01-27T05:57:07.919Z,97.75
2018-01-27T05:59:33.678Z,97.78
2018-01-27T06:01:59.439Z,97.77
2018-01-27T06:04:25.205Z,97.77
2018-01-27T06:06:50.962Z,97.71
2018-01-27T06:09:16.730Z,97.73
2018-01-27T06:11:42.511Z,97.62
2018-01-27T06:14:08.274Z,97.57
2018-01-27T06:16:34.026Z,97.48
2018-01-27T06:18:59.781Z,97.43
2018-01-27T06:21:25.542Z,97.32
2018-01-27T06:23:51.302Z,97.37
2018-01-27T06:26:17.059Z,97.25
2018-01-27T06:28:42.819Z,97.26
2018-01-27T06:31:08.576Z,97.27
2018-01-27T06:33:34.353Z,97.21
2018-01-27T06:36:00.125Z,97.20
2018-01-27T06:38:25.885Z,97.03
2018-01-27T06:40:51.659Z,97.01
2018-01-27T06:43:17.410Z,97.13
2018-01-27T06:45:43.190Z,97.12
2018-01-27T06:48:08.938Z,97.09
2018-01-27T06:50:34.683Z,97.06
2018-01-27T06:53:00.429Z,97.11
2018-01-27T06:55:26.194Z,96.83
2018-01-27T06:57:51.954Z,96.82
2018-01-27T07:00:17.710Z,96.84
2018-01-27T07:02:43.462Z,96.80
2018-01-27T07:05:09.237Z,96.78
2018-01-27T07:07:34.991Z,96.62
2018-01-27T07:10:00.770Z,96.64
2018-01-27T07:12:26.533Z,96.46
2018-01-27T07:14:52.308Z,96.42
2018-01-27T07:17:18.063Z,96.22
2018-01-27T07:19:43.846Z,96.33
2018-01-27T07:22:09.606Z,96.26
2018-01-27T07:24:35.373Z,96.01
2018-01-27T07:27:01.146Z,95.94
2018-01-27T07:29:26.922Z,95.88
2018-01-27T07:31:52.692Z,95.95
2018-01-27T07:34:18.454Z,95.91
2018-01-27T07:36:44.223Z,95.92
2018-01-27T07:39:09.980Z,95.66
2018-01-27T07:41:35.747Z,95.44
2018-01-27T07:44:01.498Z,95.50
2018-01-27T07:46:27.260Z,95.16
2018-01-27T07:48:53.020Z,95.16
2018-01-27T07:51:18.793Z,95.02
2018-01-27T07:53:44.552Z,95.07
2018-01-27T07:56:10.328Z,94.95
2018-01-27T07:58:36.099Z,94.88
2018-01-27T08:01:01.851Z,94.94
2018-01-27T08:03:27.602Z,94.93
2018-01-27T08:05:53.358Z,94.81
2018-01-27T08:08:19.106Z,94.72
2018-01-27T08:10:44.850Z,94.62
2018-01-27T08:13:10.606Z,94.43
2018-01-27T08:15:36.359Z,94.54
2018-01-27T08:18:02.124Z,94.56
2018-01-27T08:20:27.878Z,94.42
2018-01-27T08:22:53.641Z,94.43
2018-01-27T08:25:19.389Z,94.36
2018-01-27T08:27:45.139Z,94.45
2018-01-27T08:30:10.903Z,94.16
2018-01-27T08:32:36.663Z,93.93
2018-01-27T08:35:02.421Z,93.76
2018-01-27T08:37:28.198Z,93.47
2018-01-27T08:39:53.958Z,93.30
2018-01-27T08:42:19.718Z,93.50
2018-01-27T08:44:45.483Z,93.44
2018-01-27T08:47:11.249Z,93.40
2018-01-27T08:49:37.015Z,93.35
2018-01-27T08:52:02.801Z,93.29
2018-01-27T08:54:28.550Z,93.06
2018-01-27T08:56:54.281Z,92.90
2018-01-27T08:59:20.050Z,92.83
2018-01-27T09:01:45.819Z,92.83
2018-01-27T09:04:11.574Z,92.45
2018-01-27T09:06:37.314Z,92.48
2018-01-27T09:09:03.099Z,92.27
2018-01-27T09:11:28.853Z,92.51
2018-01-27T09:13:54.614Z,92.26
2018-01-27T09:16:20.379Z,92.71
2018-01-27T09:18:46.146Z,92.49
2018-01-27T09:21:11.878Z,92.58
2018-01-27T09:23:37.643Z,92.55
2018-01-27T09:26:03.411Z,92.78
2018-01-27T09:28:29.195Z,93.23
2018-01-27T09:30:54.974Z,92.66
2018-01-27T09:33:20.734Z,92.74
2018-01-27T09:35:46.494Z,92.79
2018-01-27T09:38:12.267Z,92.78
2018-01-27T09:40:38.019Z,92.71
2018-01-27T09:43:03.776Z,92.76
2018-01-27T09:45:29.527Z,92.83
2018-01-27T09:47:55.282Z,92.31
2018-01-27T09:50:21.033Z,92.47
2018-01-27T09:52:46.784Z,92.40
2018-01-27T09:55:12.524Z,92.21
2018-01-27T09:57:38.286Z,92.38
2018-01-27T10:00:04.058Z,92.01
2018-01-27T10:02:29.816Z,91.52
2018-01-27T10:04:55.595Z,91.33
2018-01-27T10:07:21.358Z,91.67
2018-01-27T10:09:47.126Z,91.54
2018-01-27T10:12:12.890Z,91.51
2018-01-27T10:14:38.646Z,91.28
2018-01-27T10:17:04.398Z,91.38
2018-01-27T10:19:30.157Z,90.77
2018-01-27T10:21:55.912Z,90.59
2018-01-27T10:24:22.114Z,90.43
2018-01-27T10:26:47.854Z,90.52
2018-01-27T10:29:13.618Z,90.65
2018-01-27T10:31:39.370Z,90.35
2018-01-27T10:34:05.127Z,90.48
2018-01-27T10:36:30.890Z,89.86
2018-01-27T10:38:56.648Z,89.43
2018-01-27T10:41:22.399Z,89.01
2018-01-27T10:43:48.143Z,88.87
2018-01-27T10:46:13.935Z,88.97
2018-01-27T10:48:39.703Z,89.11
2018-01-27T10:51:05.474Z,87.80
2018-01-27T10:53:31.214Z,87.49
2018-01-27T10:55:56.970Z,86.78
2018-01-27T10:58:22.714Z,87.16
2018-01-27T11:00:48.493Z,86.18
2018-01-27T11:03:14.245Z,85.79
2018-01-27T11:05:40.010Z,84.90
2018-01-27T11:08:05.765Z,84.95
2018-01-27T11:10:31.514Z,85.15
2018-01-27T11:12:57.303Z,85.28
2018-01-27T11:15:23.086Z,85.14
2018-01-27T11:17:48.851Z,85.22
2018-01-27T11:20:14.605Z,85.17
2018-01-27T11:22:40.363Z,85.54
2018-01-27T11:25:06.133Z,85.40
2018-01-27T11:27:31.903Z,85.54
2018-01-27T11:29:57.678Z,85.73
2018-01-27T11:32:23.478Z,85.84
2018-01-27T11:34:49.281Z,85.82
2018-01-27T11:37:15.011Z,86.53
2018-01-27T11:39:40.783Z,85.85
2018-01-27T11:42:06.546Z,86.32
2018-01-27T11:44:32.303Z,86.54
2018-01-27T11:46:58.115Z,86.87
2018-01-27T11:49:25.472Z,87.28
2018-01-27T11:51:51.362Z,87.32
2018-01-27T11:54:17.163Z,87.16
2018-01-27T11:56:42.926Z,87.78
2018-01-27T11:59:08.663Z,87.81
2018-01-27T12:01:34.417Z,87.96
2018-01-27T12:04:00.166Z,88.42
2018-01-27T12:06:25.924Z,88.30
2018-01-27T12:08:51.690Z,88.39
2018-01-27T12:11:17.466Z,88.11
2018-01-27T12:13:43.221Z,88.50
2018-01-27T12:16:08.979Z,88.50
2018-01-27T12:18:34.723Z,88.21
2018-01-27T12:21:00.487Z,87.95
2018-01-27T12:23:26.255Z,87.66
2018-01-27T12:25:52.022Z,87.62
2018-01-27T12:28:17.785Z,87.91
2018-01-27T12:30:43.525Z,87.86
2018-01-27T12:33:09.270Z,88.10
2018-01-27T12:35:35.006Z,87.64
2018-01-27T12:38:00.754Z,87.57
2018-01-27T12:40:26.495Z,87.74
2018-01-27T12:42:52.243Z,87.19
2018-01-27T12:45:17.981Z,86.57
2018-01-27T12:47:43.734Z,86.30
2018-01-27T12:50:09.570Z,86.02
2018-01-27T12:52:35.305Z,86.14
2018-01-27T12:55:01.046Z,85.47
2018-01-27T12:57:26.791Z,85.58
2018-01-27T12:59:52.543Z,84.46
2018-01-27T13:02:18.287Z,84.66
2018-01-27T13:04:44.039Z,83.77
2018-01-27T13:07:09.770Z,83.35
2018-01-27T13:09:35.554Z,83.92
2018-01-27T13:12:01.306Z,83.91
2018-01-27T13:14:27.059Z,83.04
2018-01-27T13:16:52.790Z,82.81
2018-01-27T13:19:18.537Z,81.81
2018-01-27T13:21:44.288Z,82.19
2018-01-27T13:24:10.039Z,81.69
2018-01-27T13:26:35.790Z,81.61
2018-01-27T13:29:01.560Z,81.31
2018-01-27T13:31:27.330Z,80.55
2018-01-27T13:33:53.103Z,80.43
2018-01-27T13:36:18.865Z,80.91
2018-01-27T13:38:44.651Z,81.25
2018-01-27T13:41:10.399Z,81.16
2018-01-27T13:43:36.154Z,80.85
2018-01-27T13:46:01.915Z,80.09
2018-01-27T13:48:27.672Z,80.28
2018-01-27T13:50:53.426Z,80.48
2018-01-27T13:53:19.175Z,79.89
2018-01-27T13:55:44.950Z,79.94
2018-01-27T13:58:10.714Z,80.13
2018-01-27T14:00:36.484Z,80.02
2018-01-27T14:03:02.247Z,78.87
2018-01-27T14:05:28.019Z,79.34
2018-01-27T14:07:53.781Z,77.55
2018-01-27T14:10:19.542Z,77.74
2018-01-27T14:12:45.303Z,77.64
2018-01-27T14:15:11.082Z,77.35
2018-01-27T14:17:36.833Z,75.87
2018-01-27T14:20:02.604Z,75.63
2018-01-27T14:22:28.371Z,76.50
2018-01-27T14:24:54.150Z,74.85
2018-01-27T14:27:19.903Z,74.46
2018-01-27T14:29:45.669Z,74.80
2018-01-27T14:32:11.431Z,74.39
2018-01-27T14:34:37.174Z,74.40
2018-01-27T14:37:02.922Z,74.94
2018-01-27T14:39:28.658Z,74.76
2018-01-27T14:41:54.421Z,75.19
2018-01-27T14:44:20.175Z,74.77
2018-01-27T14:46:45.924Z,75.83
2018-01-27T14:49:11.698Z,76.18
2018-01-27T14:51:37.472Z,75.72
2018-01-27T14:54:03.253Z,76.80
2018-01-27T14:56:29.022Z,76.78
2018-01-27T14:58:54.794Z,76.85
2018-01-27T15:01:20.672Z,76.27
2018-01-27T15:03:46.425Z,75.26
2018-01-27T15:06:12.203Z,75.92
2018-01-27T15:08:37.946Z,76.70
2018-01-27T15:11:03.709Z,75.99
2018-01-27T15:13:29.461Z,76.54
2018-01-27T15:15:55.223Z,74.86
2018-01-27T15:18:20.974Z,75.37
2018-01-27T15:20:46.734Z,75.05
2018-01-27T15:23:12.506Z,75.35
2018-01-27T15:25:38.415Z,75.14
2018-01-27T15:28:04.212Z,74.75
2018-01-27T15:30:29.968Z,74.72
2018-01-27T15:32:55.758Z,74.20
2018-01-27T15:35:21.514Z,73.75
2018-01-27T15:37:47.283Z,73.96
2018-01-27T15:40:13.045Z,74.99
2018-01-27T15:42:38.833Z,74.83
2018-01-27T15:45:04.605Z,75.07
2018-01-27T15:47:30.407Z,75.82
2018-01-27T15:49:56.179Z,75.38
2018-01-27T15:52:21.958Z,75.26
2018-01-27T15:54:47.706Z,74.82
2018-01-27T15:57:13.490Z,74.97
2018-01-27T15:59:39.239Z,75.62
2018-01-27T16:02:04.986Z,75.23
2018-01-27T16:04:30.748Z,74.75
2018-01-27T16:06:56.522Z,75.43
2018-01-27T16:09:22.286Z,76.01
2018-01-27T16:11:48.064Z,76.01
2018-01-27T16:14:13.838Z,76.72
2018-01-27T16:16:39.598Z,76.47
2018-01-27T16:19:05.367Z,76.61
2018-01-27T16:21:31.267Z,76.75
2018-01-27T16:23:57.071Z,76.57
2018-01-27T16:26:22.830Z,77.21
2018-01-27T16:28:48.619Z,76.90
2018-01-27T16:31:14.403Z,77.58
2018-01-27T16:33:40.189Z,77.09
2018-01-27T16:36:05.962Z,77.28
2018-01-27T16:38:31.723Z,77.55
2018-01-27T16:40:57.492Z,77.22
2018-01-27T16:43:23.294Z,78.22
2018-01-27T16:45:49.030Z,78.00
2018-01-27T16:48:14.798Z,78.28
2018-01-27T16:50:40.571Z,78.70
2018-01-27T16:53:06.330Z,78.56
2018-01-27T16:55:32.103Z,79.07
2018-01-27T16:57:57.870Z,78.94
2018-01-27T17:00:23.635Z,79.21
2018-01-27T17:02:49.454Z,79.70
2018-01-27T17:05:15.210Z,80.17
2018-01-27T17:07:40.966Z,80.32
2018-01-27T17:10:06.733Z,80.06
2018-01-27T17:12:32.494Z,79.68
2018-01-27T17:14:58.263Z,79.95
2018-01-27T17:17:24.075Z,79.39
2018-01-27T17:19:49.850Z,79.74
2018-01-27T17:22:15.619Z,80.09
2018-01-27T17:24:41.392Z,79.53
2018-01-27T17:27:07.143Z,79.99
2018-01-27T17:29:32.919Z,80.20
2018-01-27T17:31:58.675Z,79.54
2018-01-27T17:34:24.414Z,78.51
2018-01-27T17:36:50.186Z,78.72
2018-01-27T17:39:16.012Z,78.25
2018-01-27T17:41:41.784Z,76.87
2018-01-27T17:44:08.322Z,77.42
2018-01-27T17:46:34.074Z,77.21
2018-01-27T17:48:59.829Z,77.58
2018-01-27T17:51:25.587Z,77.51
2018-01-27T17:53:51.339Z,77.79
2018-01-27T17:56:17.094Z,77.45
2018-01-27T17:58:42.834Z,77.86
2018-01-27T18:01:08.628Z,78.11
2018-01-27T18:03:34.372Z,78.41
2018-01-27T18:06:00.114Z,78.17
2018-01-27T18:08:25.849Z,77.93
2018-01-27T18:10:51.681Z,78.14
2018-01-27T18:13:17.422Z,78.02
2018-01-27T18:15:43.166Z,78.13
2018-01-27T18:18:08.940Z,78.24
2018-01-27T18:20:34.734Z,78.75
2018-01-27T18:23:00.487Z,78.88
2018-01-27T18:25:26.279Z,79.07
2018-01-27T18:27:52.038Z,78.97
2018-01-27T18:30:17.818Z,79.01
2018-01-27T18:32:43.607Z,79.05
2018-01-27T18:35:09.362Z,79.44
2018-01-27T18:37:35.133Z,79.47
2018-01-27T18:40:00.882Z,79.24
2018-01-27T18:42:26.642Z,79.85
2018-01-27T18:44:52.404Z,80.32
2018-01-27T18:47:18.169Z,80.33
2018-01-27T18:49:43.927Z,80.14
2018-01-27T18:52:09.750Z,80.16
2018-01-27T18:54:35.521Z,80.09
2018-01-27T18:57:01.316Z,80.27
2018-01-27T18:59:27.092Z,80.77
2018-01-27T19:01:52.898Z,80.94
2018-01-27T19:04:18.672Z,80.90
2018-01-27T19:06:44.464Z,80.98
2018-01-27T19:09:10.234Z,81.05
2018-01-27T19:11:35.995Z,80.87
2018-01-27T19:14:01.767Z,81.14
2018-01-27T19:16:27.517Z,81.20
2018-01-27T19:18:53.266Z,81.37
2018-01-27T19:21:19.006Z,81.34
2018-01-27T19:23:44.770Z,81.57
2018-01-27T19:26:10.560Z,81.48
2018-01-27T19:28:36.390Z,81.52
2018-01-27T19:31:02.196Z,81.20
2018-01-27T19:33:28.006Z,81.00
2018-01-27T19:35:53.750Z,81.28
2018-01-27T19:38:19.513Z,81.51
2018-01-27T19:40:45.291Z,81.29
2018-01-27T19:43:11.047Z,81.59
2018-01-27T19:45:36.818Z,81.58
2018-01-27T19:48:02.586Z,81.06
2018-01-27T19:50:28.363Z,81.38
2018-01-27T19:52:54.898Z,81.35
2018-01-27T19:55:20.667Z,81.38
2018-01-27T19:57:46.438Z,81.62
2018-01-27T20:00:12.213Z,80.97
2018-01-27T20:02:37.970Z,81.44
2018-01-27T20:05:03.759Z,81.07
2018-01-27T20:07:29.519Z,80.80
2018-01-27T20:09:55.293Z,80.97
2018-01-27T20:12:21.060Z,80.87
2018-01-27T20:14:46.827Z,80.81
2018-01-27T20:17:12.598Z,81.13
2018-01-27T20:19:38.357Z,80.87
2018-01-27T20:22:04.129Z,80.56
2018-01-27T20:24:29.899Z,81.15
2018-01-27T20:26:55.668Z,80.62
2018-01-27T20:29:21.435Z,80.49
2018-01-27T20:31:47.188Z,80.97
2018-01-27T20:34:12.935Z,81.10
2018-01-27T20:36:38.690Z,81.00
2018-01-27T20:39:04.430Z,82.05
2018-01-27T20:41:37.186Z,82.47
2018-01-27T20:44:02.925Z,83.14
2018-01-27T20:46:28.691Z,82.96
2018-01-27T20:48:54.442Z,82.59
2018-01-27T20:51:20.219Z,82.70
2018-01-27T20:53:45.970Z,82.55
2018-01-27T20:56:11.734Z,82.54
2018-01-27T20:58:37.494Z,82.34
2018-01-27T21:01:03.255Z,82.30
2018-01-27T21:03:30.598Z,82.48
2018-01-27T21:05:56.334Z,82.75
2018-01-27T21:08:22.086Z,82.50
2018-01-27T21:10:48.045Z,82.80
2018-01-27T21:13:13.811Z,83.24
2018-01-27T21:15:39.555Z,84.95
2018-01-27T21:18:05.320Z,86.49
2018-01-27T21:20:31.327Z,87.64
2018-01-27T21:22:58.042Z,88.77
2018-01-27T21:25:23.850Z,88.92
2018-01-27T21:27:49.990Z,89.39
2018-01-27T21:30:16.206Z,89.67
2018-01-27T21:32:41.987Z,90.32
2018-01-27T21:35:07.754Z,90.38
2018-01-27T21:37:33.502Z,91.06
2018-01-27T21:39:59.372Z,91.27
2018-01-27T21:42:25.128Z,91.49
2018-01-27T21:44:50.914Z,92.30
2018-01-27T21:47:16.740Z,92.46
2018-01-27T21:49:42.522Z,92.49
2018-01-27T21:52:09.103Z,92.85
2018-01-27T21:54:35.172Z,93.27
2018-01-27T21:57:00.910Z,93.48
2018-01-27T21:59:26.663Z,93.67
2018-01-27T22:01:52.559Z,93.87
2018-01-27T22:04:18.320Z,94.04
2018-01-27T22:06:45.239Z,94.29
2018-01-27T22:09:10.999Z,94.17
2018-01-27T22:11:38.960Z,94.22
2018-01-27T22:14:05.408Z,94.54
2018-01-27T22:16:36.098Z,94.74
2018-01-27T22:19:03.655Z,94.75
2018-01-27T22:21:31.161Z,94.95
2018-01-27T22:23:56.946Z,95.16
2018-01-27T22:26:22.770Z,95.06
2018-01-27T22:28:48.606Z,95.24
2018-01-27T22:31:14.379Z,95.14
2018-01-27T22:33:40.527Z,95.12
2018-01-27T22:36:06.446Z,94.99
2018-01-27T22:38:32.188Z,95.20
2018-01-27T22:40:57.957Z,95.46
2018-01-27T22:43:23.709Z,95.56
2018-01-27T22:45:49.461Z,95.60
2018-01-27T22:48:15.229Z,95.88
2018-01-27T22:50:40.993Z,95.76
2018-01-27T22:53:06.742Z,95.75
2018-01-27T22:55:32.502Z,96.01
2018-01-27T22:57:58.258Z,95.63
2018-01-27T23:00:24.054Z,95.79
2018-01-27T23:02:49.818Z,95.96
2018-01-27T23:05:15.587Z,96.04
2018-01-27T23:07:41.358Z,96.09
2018-01-27T23:10:07.115Z,96.04
2018-01-27T23:12:32.894Z,96.00
2018-01-27T23:14:58.637Z,96.12
2018-01-27T23:17:24.395Z,95.97
2018-01-27T23:19:50.149Z,96.07
2018-01-27T23:22:15.930Z,96.07
2018-01-27T23:24:41.844Z,96.01
2018-01-27T23:27:07.628Z,96.01
2018-01-27T23:29:33.401Z,95.87
2018-01-27T23:32:06.635Z,96.05
2018-01-27T23:34:32.425Z,96.07
2018-01-27T23:36:58.200Z,95.87
2018-01-27T23:39:23.967Z,96.05
2018-01-27T23:41:49.789Z,96.36
2018-01-27T23:44:15.539Z,96.52
2018-01-27T23:46:41.305Z,96.66
2018-01-27T23:49:07.078Z,96.61
2018-01-27T23:51:32.861Z,96.70
2018-01-27T23:53:58.631Z,96.82
2018-01-27T23:56:24.394Z,96.73
2018-01-27T23:58:50.188Z,96.74
